createdAt,value
2023-01-26T00:01:53.643Z,83.27
2023-01-26T00:04:21.774Z,70.87
2023-01-26T00:06:49.783Z,74.47
2023-01-26T00:09:17.711Z,71.00
2023-01-26T00:11:45.710Z,81.30
2023-01-26T00:14:13.687Z,74.87
2023-01-26T00:16:43.105Z,77.23
2023-01-26T00:19:11.118Z,71.07
2023-01-26T00:21:39.298Z,74.43
2023-01-26T00:24:07.819Z,80.03
2023-01-26T00:26:35.798Z,80.13
2023-01-26T00:29:03.827Z,72.87
2023-01-26T00:31:32.021Z,67.30
2023-01-26T00:34:02.479Z,69.23
2023-01-26T00:36:30.484Z,71.77
2023-01-26T00:38:58.453Z,70.57
2023-01-26T00:41:44.179Z,72.73
2023-01-26T00:44:12.187Z,73.07
2023-01-26T00:46:41.197Z,73.13
2023-01-26T00:49:10.653Z,66.17
2023-01-26T00:51:38.645Z,67.67
2023-01-26T00:54:06.712Z,63.23
2023-01-26T00:56:34.723Z,67.03
2023-01-26T00:59:02.708Z,67.47
2023-01-26T01:01:30.926Z,68.67
2023-01-26T01:03:59.018Z,69.50
2023-01-26T01:06:29.001Z,63.67
2023-01-26T01:08:56.927Z,60.23
2023-01-26T01:11:25.052Z,65.67
2023-01-26T01:13:53.213Z,70.67
2023-01-26T01:16:21.352Z,67.23
2023-01-26T01:18:49.551Z,67.37
2023-01-26T01:21:18.856Z,64.03
2023-01-26T01:23:48.833Z,65.20
2023-01-26T01:26:17.632Z,61.37
2023-01-26T01:28:45.978Z,68.30
2023-01-26T01:31:16.574Z,64.23
2023-01-26T01:33:45.190Z,63.43
2023-01-26T01:36:15.480Z,59.47
2023-01-26T01:38:44.493Z,67.37
2023-01-26T01:41:19.212Z,63.80
2023-01-26T01:43:47.623Z,61.07
2023-01-26T01:46:31.704Z,62.80
2023-01-26T01:49:04.029Z,61.47
2023-01-26T01:51:35.798Z,60.27
2023-01-26T01:54:07.313Z,65.17
2023-01-26T01:56:38.093Z,55.63
2023-01-26T01:59:07.971Z,55.77
2023-01-26T02:01:36.155Z,56.97
2023-01-26T02:04:07.031Z,59.90
2023-01-26T02:06:43.187Z,51.73
2023-01-26T02:09:33.121Z,57.87
2023-01-26T02:12:04.443Z,57.70
2023-01-26T02:14:33.675Z,54.83
2023-01-26T02:17:01.721Z,58.17
2023-01-26T02:19:38.880Z,51.03
2023-01-26T02:22:14.228Z,55.33
2023-01-26T02:24:42.802Z,54.00
2023-01-26T02:27:13.038Z,60.90
2023-01-26T02:29:41.879Z,65.40
2023-01-26T02:32:09.991Z,58.73
2023-01-26T02:34:38.875Z,61.57
2023-01-26T02:37:06.864Z,51.93
2023-01-26T02:39:47.210Z,56.00
2023-01-26T02:42:35.844Z,57.07
2023-01-26T02:45:03.994Z,57.10
2023-01-26T02:47:32.192Z,52.80
2023-01-26T02:50:00.531Z,57.80
2023-01-26T02:52:31.848Z,55.40
2023-01-26T02:55:25.249Z,57.80
2023-01-26T02:57:56.251Z,54.47
2023-01-26T03:00:27.074Z,58.43
2023-01-26T03:02:58.251Z,57.20
2023-01-26T03:05:26.975Z,53.93
2023-01-26T03:07:56.293Z,54.13
2023-01-26T03:10:27.898Z,53.90
2023-01-26T03:12:57.266Z,61.63
2023-01-26T03:15:42.069Z,58.53
2023-01-26T03:18:30.376Z,56.90
2023-01-26T03:21:17.975Z,58.07
2023-01-26T03:24:04.774Z,51.73
2023-01-26T03:26:51.694Z,51.40
2023-01-26T03:29:22.988Z,54.63
2023-01-26T03:31:52.146Z,52.53
2023-01-26T03:34:20.794Z,55.40
2023-01-26T03:36:49.540Z,53.07
2023-01-26T03:39:36.971Z,52.50
2023-01-26T03:42:23.875Z,54.97
2023-01-26T03:45:11.017Z,57.03
2023-01-26T03:47:59.495Z,63.33
2023-01-26T03:50:45.456Z,59.83
2023-01-26T03:53:34.994Z,52.93
2023-01-26T03:56:21.947Z,58.40
2023-01-26T03:58:54.137Z,56.97
2023-01-26T04:01:27.687Z,57.57
2023-01-26T04:04:16.345Z,56.00
2023-01-26T04:07:04.901Z,50.30
2023-01-26T04:09:34.457Z,52.47
2023-01-26T04:12:02.446Z,63.83
2023-01-26T04:14:50.020Z,52.53
2023-01-26T04:17:39.761Z,53.73
2023-01-26T04:20:27.090Z,53.63
2023-01-26T04:22:55.069Z,52.50
2023-01-26T04:25:24.318Z,45.97
2023-01-26T04:27:52.614Z,50.90
2023-01-26T04:30:20.946Z,49.83
2023-01-26T04:32:52.865Z,46.80
2023-01-26T04:35:20.884Z,47.27
2023-01-26T04:37:49.525Z,53.13
2023-01-26T04:40:18.201Z,46.43
2023-01-26T04:42:47.471Z,50.27
2023-01-26T04:45:15.580Z,47.03
2023-01-26T04:47:45.449Z,48.83
2023-01-26T04:50:15.711Z,45.50
2023-01-26T04:52:44.320Z,44.67
2023-01-26T04:55:12.357Z,50.40
2023-01-26T04:57:43.068Z,45.03
2023-01-26T05:00:14.096Z,44.43
2023-01-26T05:02:42.581Z,47.27
2023-01-26T05:05:11.431Z,43.47
2023-01-26T05:07:41.155Z,42.30
2023-01-26T05:10:11.936Z,44.67
2023-01-26T05:13:13.717Z,46.80
2023-01-26T05:15:54.307Z,43.67
2023-01-26T05:18:38.464Z,46.50
2023-01-26T05:21:18.585Z,48.20
2023-01-26T05:23:52.157Z,45.77
2023-01-26T05:26:38.751Z,46.57
2023-01-26T05:29:11.734Z,55.40
2023-01-26T05:31:39.927Z,46.00
2023-01-26T05:34:07.990Z,38.40
2023-01-26T05:36:37.795Z,39.13
2023-01-26T05:39:07.747Z,44.10
2023-01-26T05:41:36.070Z,43.37
2023-01-26T05:44:18.995Z,40.33
2023-01-26T05:46:52.145Z,46.53
2023-01-26T05:49:20.321Z,48.93
2023-01-26T05:51:48.611Z,42.40
2023-01-26T05:54:18.345Z,39.80
2023-01-26T05:56:47.004Z,45.87
2023-01-26T05:59:15.618Z,38.60
2023-01-26T06:01:44.299Z,39.43
2023-01-26T06:04:12.988Z,49.80
2023-01-26T06:06:54.772Z,43.17
2023-01-26T06:09:27.610Z,44.20
2023-01-26T06:12:23.180Z,40.90
2023-01-26T06:14:56.966Z,42.23
2023-01-26T06:17:29.612Z,40.27
2023-01-26T06:20:00.379Z,40.73
2023-01-26T06:22:28.528Z,41.40
2023-01-26T06:24:58.425Z,41.70
2023-01-26T06:27:26.423Z,42.50
2023-01-26T06:29:54.838Z,36.53
2023-01-26T06:32:23.696Z,36.63
2023-01-26T06:34:55.204Z,36.80
2023-01-26T06:37:25.073Z,37.63
2023-01-26T06:39:54.264Z,35.13
2023-01-26T06:42:23.743Z,35.17
2023-01-26T06:44:52.431Z,40.83
2023-01-26T06:47:20.448Z,36.13
2023-01-26T06:49:48.513Z,32.97
2023-01-26T06:52:26.241Z,43.83
2023-01-26T06:54:59.576Z,39.93
2023-01-26T06:57:51.887Z,34.97
2023-01-26T07:00:56.725Z,35.13
2023-01-26T07:03:34.393Z,33.90
2023-01-26T07:06:02.332Z,34.97
2023-01-26T07:08:30.359Z,35.63
2023-01-26T07:10:58.396Z,32.10
2023-01-26T07:13:27.812Z,49.50
2023-01-26T07:16:02.503Z,36.70
2023-01-26T07:18:30.783Z,33.40
2023-01-26T07:21:02.426Z,38.80
2023-01-26T07:23:30.935Z,41.07
2023-01-26T07:25:59.811Z,37.13
2023-01-26T07:28:30.454Z,46.73
2023-01-26T07:30:59.097Z,45.40
2023-01-26T07:33:27.386Z,42.83
2023-01-26T07:35:55.420Z,39.80
2023-01-26T07:38:23.817Z,38.23
2023-01-26T07:40:52.110Z,47.47
2023-01-26T07:43:20.576Z,58.93
2023-01-26T07:45:52.503Z,50.80
2023-01-26T07:48:21.552Z,48.37
2023-01-26T07:50:49.655Z,33.13
2023-01-26T07:53:21.273Z,42.67
2023-01-26T07:55:49.532Z,43.40
2023-01-26T07:58:18.454Z,54.90
2023-01-26T08:00:47.705Z,38.00
2023-01-26T08:03:17.110Z,41.97
2023-01-26T08:05:45.611Z,35.43
2023-01-26T08:08:13.742Z,42.47
2023-01-26T08:10:41.792Z,34.77
2023-01-26T08:13:09.794Z,31.60
2023-01-26T08:15:37.771Z,43.57
2023-01-26T08:18:06.011Z,45.80
2023-01-26T08:20:36.427Z,31.10
2023-01-26T08:23:04.418Z,41.50
2023-01-26T08:25:33.654Z,42.00
2023-01-26T08:28:01.611Z,34.87
2023-01-26T08:30:29.546Z,43.70
2023-01-26T08:32:57.562Z,55.30
2023-01-26T08:35:25.529Z,34.50
2023-01-26T08:37:54.901Z,54.83
2023-01-26T08:40:24.705Z,39.80
2023-01-26T08:42:53.100Z,35.87
2023-01-26T08:45:21.045Z,26.93
2023-01-26T08:47:50.976Z,30.80
2023-01-26T08:50:19.163Z,49.37
2023-01-26T08:52:47.201Z,38.97
2023-01-26T08:55:16.861Z,32.20
2023-01-26T08:57:45.207Z,30.40
2023-01-26T09:00:14.836Z,27.00
2023-01-26T09:02:43.029Z,31.13
2023-01-26T09:05:11.490Z,25.50
2023-01-26T09:07:39.472Z,35.23
2023-01-26T09:10:09.791Z,28.17
2023-01-26T09:12:41.034Z,36.77
2023-01-26T09:15:10.262Z,37.10
2023-01-26T09:17:38.532Z,37.30
2023-01-26T09:20:08.283Z,32.67
2023-01-26T09:22:36.424Z,37.37
2023-01-26T09:25:05.150Z,52.63
2023-01-26T09:27:33.208Z,35.77
2023-01-26T09:30:02.642Z,29.30
2023-01-26T09:32:30.976Z,29.70
2023-01-26T09:34:59.083Z,29.37
2023-01-26T09:37:27.258Z,40.33
2023-01-26T09:39:55.256Z,35.87
2023-01-26T09:42:33.729Z,35.77
2023-01-26T09:45:25.477Z,33.13
2023-01-26T09:48:13.228Z,31.57
2023-01-26T09:50:47.556Z,44.30
2023-01-26T09:53:21.056Z,41.90
2023-01-26T09:55:50.105Z,40.80
2023-01-26T09:58:23.304Z,37.70
2023-01-26T10:00:56.611Z,43.33
2023-01-26T10:03:29.814Z,35.80
2023-01-26T10:06:05.272Z,32.53
2023-01-26T10:08:51.924Z,40.57
2023-01-26T10:11:25.859Z,40.20
2023-01-26T10:13:58.440Z,34.33
2023-01-26T10:16:27.804Z,46.63
2023-01-26T10:19:00.799Z,58.80
2023-01-26T10:21:34.272Z,45.57
2023-01-26T10:24:03.213Z,55.63
2023-01-26T10:26:33.002Z,39.53
2023-01-26T10:29:01.476Z,37.73
2023-01-26T10:31:33.555Z,51.13
2023-01-26T10:34:10.413Z,48.70
2023-01-26T10:36:38.416Z,41.73
2023-01-26T10:39:07.699Z,84.97
2023-01-26T10:41:36.228Z,50.67
2023-01-26T10:44:11.713Z,54.90
2023-01-26T10:46:42.807Z,64.67
2023-01-26T10:49:16.964Z,70.93
2023-01-26T10:51:46.804Z,64.83
2023-01-26T10:54:20.073Z,80.93
2023-01-26T10:56:51.390Z,42.73
2023-01-26T10:59:27.124Z,65.33
2023-01-26T11:02:00.023Z,55.77
2023-01-26T11:04:29.153Z,69.73
2023-01-26T11:06:57.200Z,58.93
2023-01-26T11:09:28.531Z,77.00
2023-01-26T11:12:00.550Z,43.73
2023-01-26T11:14:29.456Z,86.77
2023-01-26T11:17:15.931Z,90.20
2023-01-26T11:20:04.507Z,69.03
2023-01-26T11:22:39.329Z,74.30
2023-01-26T11:25:17.030Z,106.43
2023-01-26T11:27:54.691Z,54.33
2023-01-26T11:30:48.344Z,62.13
2023-01-26T11:33:30.818Z,44.17
2023-01-26T11:36:06.799Z,100.27
2023-01-26T11:38:41.095Z,98.30
2023-01-26T11:41:26.074Z,66.60
2023-01-26T11:44:15.990Z,60.27
2023-01-26T11:46:57.555Z,57.60
2023-01-26T11:49:41.740Z,93.03
2023-01-26T11:52:17.741Z,71.90
2023-01-26T11:55:08.056Z,96.30
2023-01-26T11:57:42.699Z,88.17
2023-01-26T12:00:29.178Z,82.23
2023-01-26T12:03:03.262Z,80.00
2023-01-26T12:05:42.080Z,86.97
2023-01-26T12:08:16.266Z,72.10
2023-01-26T12:10:51.866Z,80.80
2023-01-26T12:13:34.561Z,91.37
2023-01-26T12:16:08.319Z,72.00
2023-01-26T12:18:53.291Z,74.50
2023-01-26T12:21:31.236Z,64.47
2023-01-26T12:24:02.552Z,63.83
2023-01-26T12:26:34.796Z,61.73
2023-01-26T12:29:09.661Z,74.20
2023-01-26T12:31:46.918Z,80.93
2023-01-26T12:34:15.557Z,63.93
2023-01-26T12:36:53.735Z,54.57
2023-01-26T12:39:30.684Z,65.87
2023-01-26T12:42:07.288Z,58.00
2023-01-26T12:44:39.307Z,61.80
2023-01-26T12:47:15.660Z,47.50
2023-01-26T12:49:50.912Z,61.57
2023-01-26T12:52:25.903Z,56.37
2023-01-26T12:54:59.419Z,61.87
2023-01-26T12:57:34.412Z,73.20
2023-01-26T13:00:09.758Z,59.10
2023-01-26T13:02:38.283Z,48.50
2023-01-26T13:05:07.881Z,52.73
2023-01-26T13:07:39.744Z,48.60
2023-01-26T13:10:45.728Z,54.97
2023-01-26T13:13:31.996Z,53.13
2023-01-26T13:16:34.434Z,44.13
2023-01-26T13:19:03.581Z,50.50
2023-01-26T13:21:44.660Z,67.70
2023-01-26T13:24:44.324Z,48.67
2023-01-26T13:27:31.250Z,44.13
2023-01-26T13:30:00.057Z,61.87
2023-01-26T13:33:02.355Z,49.77
2023-01-26T13:35:32.100Z,45.37
2023-01-26T13:38:10.251Z,49.03
2023-01-26T13:40:43.556Z,47.20
2023-01-26T13:43:26.814Z,48.40
2023-01-26T13:46:15.221Z,44.53
2023-01-26T13:48:46.257Z,43.60
2023-01-26T13:51:20.278Z,46.37
2023-01-26T13:53:54.517Z,53.30
2023-01-26T13:56:27.079Z,42.63
2023-01-26T13:58:55.551Z,45.27
2023-01-26T14:01:23.588Z,46.70
2023-01-26T14:04:03.972Z,39.07
2023-01-26T14:06:32.704Z,45.43
2023-01-26T14:09:00.684Z,37.50
2023-01-26T14:11:31.976Z,36.57
2023-01-26T14:14:02.479Z,35.43
2023-01-26T14:16:35.163Z,28.83
2023-01-26T14:19:16.239Z,27.33
2023-01-26T14:21:49.916Z,26.13
2023-01-26T14:24:18.471Z,25.97
2023-01-26T14:26:49.525Z,24.30
2023-01-26T14:29:22.777Z,24.90
2023-01-26T14:31:53.026Z,25.57
2023-01-26T14:34:23.188Z,20.67
2023-01-26T14:37:06.340Z,23.80
2023-01-26T14:39:34.467Z,23.43
2023-01-26T14:42:05.140Z,21.93
2023-01-26T14:44:33.315Z,17.23
2023-01-26T14:47:07.173Z,20.77
2023-01-26T14:49:43.165Z,15.87
2023-01-26T14:52:22.152Z,19.23
2023-01-26T14:54:51.484Z,19.47
2023-01-26T14:57:23.138Z,16.50
2023-01-26T14:59:54.444Z,21.83
2023-01-26T15:02:24.137Z,16.30
2023-01-26T15:04:56.624Z,18.90
2023-01-26T15:07:37.177Z,17.97
2023-01-26T15:10:26.204Z,11.33
2023-01-26T15:13:00.700Z,14.97
2023-01-26T15:15:31.213Z,11.63
2023-01-26T15:18:07.430Z,11.57
2023-01-26T15:20:43.782Z,11.07
2023-01-26T15:23:26.657Z,11.07
2023-01-26T15:25:55.241Z,8.93
2023-01-26T15:28:27.045Z,9.83
2023-01-26T15:30:57.223Z,13.10
2023-01-26T15:33:45.879Z,13.57
2023-01-26T15:36:35.596Z,13.60
2023-01-26T15:39:11.897Z,10.93
2023-01-26T15:41:40.619Z,11.30
2023-01-26T15:44:15.925Z,10.00
2023-01-26T15:46:43.933Z,11.50
2023-01-26T15:49:12.191Z,13.67
2023-01-26T15:51:40.477Z,8.97
2023-01-26T15:54:11.142Z,13.30
2023-01-26T15:56:57.920Z,12.73
2023-01-26T15:59:27.257Z,12.67
2023-01-26T16:01:56.831Z,9.93
2023-01-26T16:04:27.782Z,12.80
2023-01-26T16:06:56.128Z,12.67
2023-01-26T16:09:24.087Z,15.57
2023-01-26T16:11:53.316Z,16.27
2023-01-26T16:14:21.343Z,11.93
2023-01-26T16:16:50.664Z,12.80
2023-01-26T16:19:34.499Z,10.17
2023-01-26T16:22:03.140Z,14.03
2023-01-26T16:24:31.080Z,13.47
2023-01-26T16:26:59.143Z,11.50
2023-01-26T16:29:27.184Z,6.73
2023-01-26T16:31:56.613Z,10.43
2023-01-26T16:34:24.798Z,9.43
2023-01-26T16:36:52.747Z,8.53
2023-01-26T16:39:21.460Z,11.90
2023-01-26T16:41:49.708Z,13.57
2023-01-26T16:44:19.560Z,15.03
2023-01-26T16:46:47.504Z,10.93
2023-01-26T16:49:17.046Z,12.03
2023-01-26T16:51:45.265Z,13.57
2023-01-26T16:54:13.395Z,7.63
2023-01-26T16:56:42.300Z,10.40
2023-01-26T16:59:10.274Z,8.97
2023-01-26T17:01:39.880Z,11.63
2023-01-26T17:04:07.970Z,11.97
2023-01-26T17:06:37.392Z,7.97
2023-01-26T17:09:05.885Z,14.10
2023-01-26T17:11:34.124Z,12.73
2023-01-26T17:14:03.517Z,9.93
2023-01-26T17:16:32.713Z,10.23
2023-01-26T17:19:01.054Z,8.37
2023-01-26T17:21:29.102Z,10.57
2023-01-26T17:23:59.489Z,11.97
2023-01-26T17:26:27.557Z,8.30
2023-01-26T17:28:56.961Z,13.20
2023-01-26T17:31:26.013Z,9.27
2023-01-26T17:33:55.664Z,10.87
2023-01-26T17:36:24.444Z,10.33
2023-01-26T17:38:52.600Z,16.07
2023-01-26T17:41:22.184Z,10.90
2023-01-26T17:43:51.192Z,6.87
2023-01-26T17:46:21.173Z,8.97
2023-01-26T17:48:50.247Z,7.23
2023-01-26T17:51:20.102Z,5.73
2023-01-26T17:53:49.566Z,6.70
2023-01-26T17:56:19.377Z,8.83
2023-01-26T17:58:50.796Z,8.47
2023-01-26T18:01:18.926Z,9.17
2023-01-26T18:03:47.225Z,7.00
2023-01-26T18:06:15.750Z,8.40
2023-01-26T18:08:43.840Z,9.17
2023-01-26T18:11:13.789Z,8.47
2023-01-26T18:13:42.706Z,10.57
2023-01-26T18:16:15.723Z,10.37
2023-01-26T18:18:44.154Z,9.10
2023-01-26T18:21:14.759Z,6.83
2023-01-26T18:23:45.923Z,9.53
2023-01-26T18:26:14.327Z,10.07
2023-01-26T18:28:42.807Z,7.70
2023-01-26T18:31:14.028Z,7.40
2023-01-26T18:33:42.529Z,7.03
2023-01-26T18:36:12.541Z,6.83
2023-01-26T18:38:41.001Z,11.53
2023-01-26T18:41:12.038Z,5.40
2023-01-26T18:43:40.177Z,6.00
2023-01-26T18:46:08.670Z,9.43
2023-01-26T18:48:38.114Z,5.20
2023-01-26T18:51:06.811Z,7.37
2023-01-26T18:53:35.028Z,9.13
2023-01-26T18:56:05.721Z,9.47
2023-01-26T18:58:34.276Z,5.67
2023-01-26T19:01:04.222Z,6.33
2023-01-26T19:03:32.575Z,10.00
2023-01-26T19:06:03.845Z,6.10
2023-01-26T19:08:32.421Z,8.83
2023-01-26T19:11:05.486Z,7.47
2023-01-26T19:13:33.670Z,5.77
2023-01-26T19:16:02.003Z,8.00
2023-01-26T19:18:30.020Z,9.43
2023-01-26T19:20:58.459Z,7.87
2023-01-26T19:23:28.290Z,11.43
2023-01-26T19:25:56.603Z,10.97
2023-01-26T19:28:24.723Z,9.87
2023-01-26T19:30:52.877Z,9.03
2023-01-26T19:33:28.888Z,8.93
2023-01-26T19:35:57.622Z,13.53
2023-01-26T19:38:27.424Z,6.13
2023-01-26T19:40:55.403Z,8.50
2023-01-26T19:43:23.809Z,7.70
2023-01-26T19:45:53.944Z,7.30
2023-01-26T19:48:23.503Z,13.20
2023-01-26T19:51:02.814Z,10.87
2023-01-26T19:53:33.086Z,9.33
2023-01-26T19:56:06.527Z,9.20
2023-01-26T19:58:34.600Z,10.77
2023-01-26T20:01:04.883Z,9.97
2023-01-26T20:03:32.905Z,8.77
2023-01-26T20:06:01.022Z,10.53
2023-01-26T20:08:30.172Z,12.97
2023-01-26T20:11:05.299Z,9.87
2023-01-26T20:13:35.287Z,8.10
2023-01-26T20:16:06.821Z,10.63
2023-01-26T20:18:35.219Z,8.23
2023-01-26T20:21:03.970Z,14.53
2023-01-26T20:23:31.995Z,15.63
2023-01-26T20:26:06.095Z,8.27
2023-01-26T20:28:34.399Z,10.83
2023-01-26T20:31:07.786Z,10.13
2023-01-26T20:33:36.203Z,10.00
2023-01-26T20:36:07.989Z,10.17
2023-01-26T20:38:36.419Z,10.90
2023-01-26T20:41:09.427Z,21.83
2023-01-26T20:43:39.674Z,10.67
2023-01-26T20:46:11.595Z,12.53
2023-01-26T20:48:40.275Z,10.13
2023-01-26T20:51:13.574Z,11.27
2023-01-26T20:53:42.088Z,14.07
2023-01-26T20:56:13.455Z,8.67
2023-01-26T20:58:42.927Z,9.40
2023-01-26T21:01:13.138Z,15.57
2023-01-26T21:03:42.342Z,11.57
2023-01-26T21:06:12.519Z,13.47
2023-01-26T21:08:41.143Z,9.90
2023-01-26T21:11:13.671Z,10.27
2023-01-26T21:13:42.338Z,12.20
2023-01-26T21:16:11.211Z,8.27
2023-01-26T21:18:39.371Z,13.27
2023-01-26T21:21:09.164Z,12.40
2023-01-26T21:23:37.251Z,8.10
2023-01-26T21:26:07.494Z,11.93
2023-01-26T21:28:36.995Z,11.80
2023-01-26T21:31:07.273Z,8.67
2023-01-26T21:33:38.188Z,9.40
2023-01-26T21:36:07.694Z,8.70
2023-01-26T21:38:37.796Z,10.27
2023-01-26T21:41:28.444Z,9.73
2023-01-26T21:43:58.766Z,8.70
2023-01-26T21:46:27.614Z,11.90
2023-01-26T21:48:55.868Z,10.50
2023-01-26T21:51:41.481Z,9.03
2023-01-26T21:54:09.759Z,17.37
2023-01-26T21:56:38.327Z,12.20
2023-01-26T21:59:08.951Z,10.40
2023-01-26T22:01:38.543Z,10.20
2023-01-26T22:04:08.778Z,13.60
2023-01-26T22:06:38.040Z,11.33
2023-01-26T22:09:08.756Z,11.97
2023-01-26T22:11:38.150Z,9.30
2023-01-26T22:14:08.107Z,12.13
2023-01-26T22:16:36.229Z,9.67
2023-01-26T22:19:04.587Z,11.17
2023-01-26T22:21:32.723Z,15.63
2023-01-26T22:24:00.893Z,11.17
2023-01-26T22:26:29.085Z,9.87
2023-01-26T22:28:58.678Z,12.67
2023-01-26T22:31:29.737Z,10.27
2023-01-26T22:33:59.672Z,9.90
2023-01-26T22:36:28.727Z,12.00
2023-01-26T22:38:57.184Z,9.73
2023-01-26T22:41:26.875Z,15.10
2023-01-26T22:43:57.343Z,13.00
2023-01-26T22:46:27.790Z,10.60
2023-01-26T22:48:57.741Z,20.03
2023-01-26T22:51:27.348Z,15.87
2023-01-26T22:53:56.849Z,11.17
2023-01-26T22:56:25.014Z,11.03
2023-01-26T22:58:59.383Z,9.00
2023-01-26T23:01:31.405Z,10.93
2023-01-26T23:04:00.716Z,13.07
2023-01-26T23:06:29.361Z,11.87
2023-01-26T23:08:58.284Z,11.67
2023-01-26T23:11:28.279Z,13.30
2023-01-26T23:13:58.353Z,12.77
2023-01-26T23:16:26.864Z,11.37
2023-01-26T23:18:57.663Z,15.73
2023-01-26T23:21:26.758Z,14.90
2023-01-26T23:23:54.981Z,13.90
2023-01-26T23:26:23.650Z,13.83
2023-01-26T23:28:51.783Z,15.53
2023-01-26T23:31:20.716Z,11.63
2023-01-26T23:33:49.176Z,12.83
2023-01-26T23:36:18.528Z,14.73
2023-01-26T23:38:46.624Z,11.20
2023-01-26T23:41:14.925Z,11.50
2023-01-26T23:43:43.000Z,11.53
2023-01-26T23:46:11.706Z,10.37
2023-01-26T23:48:40.184Z,11.17
2023-01-26T23:51:10.368Z,10.73
2023-01-26T23:53:40.318Z,11.47
2023-01-26T23:56:10.234Z,12.90
2023-01-26T23:58:38.286Z,10.47
